createdAt,value
2018-08-10T00:01:58.517Z,76.52
2018-08-10T00:04:27.836Z,76.99
2018-08-10T00:06:57.185Z,76.61
2018-08-10T00:09:26.483Z,77.14
2018-08-10T00:11:55.853Z,77.27
2018-08-10T00:14:25.207Z,77.85
2018-08-10T00:16:54.617Z,76.78
2018-08-10T00:19:23.977Z,77.37
2018-08-10T00:21:53.291Z,76.89
2018-08-10T00:24:22.601Z,76.39
2018-08-10T00:26:51.994Z,76.52
2018-08-10T00:29:21.318Z,75.81
2018-08-10T00:31:50.632Z,76.09
2018-08-10T00:34:19.974Z,74.87
2018-08-10T00:36:49.330Z,74.21
2018-08-10T00:39:18.614Z,73.88
2018-08-10T00:41:47.992Z,74.40
2018-08-10T00:44:17.317Z,71.53
2018-08-10T00:46:46.578Z,72.23
2018-08-10T00:49:15.890Z,71.52
2018-08-10T00:51:45.143Z,72.13
2018-08-10T00:54:14.471Z,72.88
2018-08-10T00:56:43.756Z,72.96
2018-08-10T00:59:13.133Z,72.85
2018-08-10T01:01:42.548Z,72.32
2018-08-10T01:04:11.831Z,72.27
2018-08-10T01:06:41.206Z,72.66
2018-08-10T01:09:12.560Z,73.24
2018-08-10T01:11:41.968Z,73.91
2018-08-10T01:14:11.262Z,74.89
2018-08-10T01:16:40.569Z,74.14
2018-08-10T01:19:09.984Z,73.12
2018-08-10T01:21:39.266Z,72.88
2018-08-10T01:24:08.597Z,73.60
2018-08-10T01:26:38.000Z,74.15
2018-08-10T01:29:07.550Z,72.92
2018-08-10T01:31:36.862Z,73.13
2018-08-10T01:34:06.275Z,73.21
2018-08-10T01:36:35.605Z,73.68
2018-08-10T01:39:07.951Z,75.06
2018-08-10T01:41:37.189Z,74.74
2018-08-10T01:44:07.639Z,74.83
2018-08-10T01:46:36.974Z,75.49
2018-08-10T01:49:07.099Z,76.94
2018-08-10T01:51:36.374Z,76.47
2018-08-10T01:54:05.722Z,76.45
2018-08-10T01:56:35.020Z,76.88
2018-08-10T01:59:04.321Z,77.28
2018-08-10T02:01:33.655Z,77.61
2018-08-10T02:04:02.954Z,76.96
2018-08-10T02:06:32.283Z,77.50
2018-08-10T02:09:01.594Z,78.03
2018-08-10T02:11:30.895Z,78.78
2018-08-10T02:14:00.148Z,78.71
2018-08-10T02:16:29.436Z,78.45
2018-08-10T02:18:58.724Z,79.18
2018-08-10T02:21:28.051Z,79.46
2018-08-10T02:23:57.352Z,79.51
2018-08-10T02:26:26.642Z,79.01
2018-08-10T02:28:55.957Z,78.94
2018-08-10T02:31:25.243Z,78.53
2018-08-10T02:33:54.539Z,78.91
2018-08-10T02:36:23.895Z,78.73
2018-08-10T02:38:53.175Z,79.83
2018-08-10T02:41:22.709Z,79.90
2018-08-10T02:43:53.058Z,79.58
2018-08-10T02:46:22.362Z,78.98
2018-08-10T02:48:52.019Z,79.53
2018-08-10T02:51:21.402Z,79.28
2018-08-10T02:53:50.666Z,80.13
2018-08-10T02:56:19.947Z,80.47
2018-08-10T02:58:49.262Z,80.30
2018-08-10T03:01:18.581Z,80.82
2018-08-10T03:03:47.930Z,81.19
2018-08-10T03:06:17.324Z,81.14
2018-08-10T03:08:46.626Z,80.18
2018-08-10T03:11:15.947Z,79.77
2018-08-10T03:13:45.303Z,78.69
2018-08-10T03:16:14.845Z,78.40
2018-08-10T03:18:44.229Z,76.98
2018-08-10T03:21:13.606Z,77.00
2018-08-10T03:23:42.902Z,76.82
2018-08-10T03:26:12.248Z,76.79
2018-08-10T03:28:41.542Z,76.62
2018-08-10T03:31:10.838Z,76.38
2018-08-10T03:33:40.115Z,76.23
2018-08-10T03:36:09.661Z,76.69
2018-08-10T03:38:38.957Z,76.53
2018-08-10T03:41:08.285Z,77.15
2018-08-10T03:43:37.583Z,77.57
2018-08-10T03:46:06.841Z,76.35
2018-08-10T03:48:36.185Z,75.53
2018-08-10T03:51:05.529Z,75.91
2018-08-10T03:53:34.780Z,75.55
2018-08-10T03:56:04.257Z,76.16
2018-08-10T03:58:33.575Z,77.02
2018-08-10T04:01:02.831Z,77.10
2018-08-10T04:03:32.264Z,77.11
2018-08-10T04:06:01.934Z,77.61
2018-08-10T04:08:31.226Z,78.00
2018-08-10T04:11:00.567Z,78.41
2018-08-10T04:13:30.059Z,77.31
2018-08-10T04:15:59.357Z,78.31
2018-08-10T04:18:28.662Z,77.65
2018-08-10T04:20:57.919Z,78.85
2018-08-10T04:23:27.202Z,78.99
2018-08-10T04:25:56.481Z,77.68
2018-08-10T04:28:25.776Z,77.81
2018-08-10T04:30:55.071Z,77.92
2018-08-10T04:33:24.416Z,78.39
2018-08-10T04:35:53.704Z,78.40
2018-08-10T04:38:23.136Z,77.52
2018-08-10T04:40:52.400Z,77.90
2018-08-10T04:43:21.700Z,77.34
2018-08-10T04:45:51.017Z,77.47
2018-08-10T04:48:20.447Z,76.90
2018-08-10T04:50:49.597Z,77.09
2018-08-10T04:53:18.999Z,77.58
2018-08-10T04:55:48.275Z,77.35
2018-08-10T04:58:17.528Z,77.54
2018-08-10T05:00:46.874Z,77.44
2018-08-10T05:03:16.216Z,77.88
2018-08-10T05:05:45.576Z,78.65
2018-08-10T05:08:14.878Z,78.33
2018-08-10T05:10:44.208Z,78.21
2018-08-10T05:13:13.606Z,78.13
2018-08-10T05:15:43.058Z,78.17
2018-08-10T05:18:12.687Z,77.65
2018-08-10T05:20:42.060Z,77.26
2018-08-10T05:23:11.456Z,77.06
2018-08-10T05:25:40.793Z,77.41
2018-08-10T05:28:10.178Z,77.25
2018-08-10T05:30:39.518Z,74.15
2018-08-10T05:33:08.822Z,70.98
2018-08-10T05:35:38.134Z,69.97
2018-08-10T05:38:07.752Z,69.21
2018-08-10T05:40:37.054Z,69.46
2018-08-10T05:43:06.334Z,67.33
2018-08-10T05:45:35.633Z,66.19
2018-08-10T05:48:04.991Z,66.97
2018-08-10T05:50:34.332Z,66.00
2018-08-10T05:53:03.626Z,65.90
2018-08-10T05:55:32.989Z,64.55
2018-08-10T05:58:02.263Z,65.27
2018-08-10T06:00:31.596Z,65.65
2018-08-10T06:03:00.966Z,65.98
2018-08-10T06:05:30.281Z,63.53
2018-08-10T06:07:59.652Z,63.46
2018-08-10T06:10:29.141Z,65.04
2018-08-10T06:12:58.503Z,64.90
2018-08-10T06:15:27.823Z,68.62
2018-08-10T06:17:57.107Z,69.25
2018-08-10T06:20:26.447Z,68.18
2018-08-10T06:22:55.986Z,67.93
2018-08-10T06:25:25.227Z,66.11
2018-08-10T06:27:54.601Z,65.83
2018-08-10T06:30:23.980Z,66.92
2018-08-10T06:32:53.322Z,67.96
2018-08-10T06:35:23.147Z,68.24
2018-08-10T06:37:52.576Z,67.40
2018-08-10T06:40:21.892Z,68.45
2018-08-10T06:42:51.293Z,67.48
2018-08-10T06:45:21.043Z,65.85
2018-08-10T06:47:50.240Z,65.66
2018-08-10T06:50:19.628Z,65.17
2018-08-10T06:52:48.960Z,64.35
2018-08-10T06:55:18.263Z,62.85
2018-08-10T06:57:47.770Z,62.90
2018-08-10T07:00:17.130Z,63.84
2018-08-10T07:02:46.454Z,62.85
2018-08-10T07:05:15.819Z,61.48
2018-08-10T07:07:45.206Z,62.81
2018-08-10T07:10:14.504Z,60.71
2018-08-10T07:12:43.854Z,61.04
2018-08-10T07:15:13.091Z,60.26
2018-08-10T07:17:42.497Z,60.16
2018-08-10T07:20:11.780Z,60.18
2018-08-10T07:22:41.169Z,60.27
2018-08-10T07:25:10.511Z,61.28
2018-08-10T07:27:39.847Z,60.16
2018-08-10T07:30:09.166Z,61.42
2018-08-10T07:32:38.525Z,57.75
2018-08-10T07:35:07.823Z,57.19
2018-08-10T07:37:37.182Z,58.76
2018-08-10T07:40:06.505Z,58.25
2018-08-10T07:42:36.494Z,59.75
2018-08-10T07:45:06.315Z,60.40
2018-08-10T07:47:35.629Z,59.42
2018-08-10T07:50:05.347Z,56.28
2018-08-10T07:52:34.651Z,55.17
2018-08-10T07:56:28.110Z,56.21
2018-08-10T07:58:57.463Z,55.63
2018-08-10T08:01:26.822Z,55.87
2018-08-10T08:03:56.153Z,56.26
2018-08-10T08:06:25.521Z,55.37
2018-08-10T08:08:54.854Z,54.09
2018-08-10T08:11:24.238Z,52.72
2018-08-10T08:13:53.649Z,51.74
2018-08-10T08:16:23.113Z,52.28
2018-08-10T08:18:52.459Z,52.40
2018-08-10T08:21:21.790Z,52.57
2018-08-10T08:23:51.170Z,51.61
2018-08-10T08:26:20.591Z,50.84
2018-08-10T08:28:50.009Z,51.51
2018-08-10T08:31:19.305Z,49.66
2018-08-10T08:34:02.260Z,49.93
2018-08-10T08:36:31.598Z,48.34
2018-08-10T08:40:17.317Z,49.52
2018-08-10T08:42:47.749Z,50.83
2018-08-10T08:45:58.811Z,49.79
2018-08-10T08:48:29.046Z,48.59
2018-08-10T08:50:59.922Z,48.53
2018-08-10T08:53:29.383Z,48.47
2018-08-10T08:56:02.418Z,47.47
2018-08-10T08:58:32.248Z,48.11
2018-08-10T09:01:01.559Z,47.92
2018-08-10T09:03:51.540Z,47.40
2018-08-10T09:06:20.814Z,46.96
2018-08-10T09:09:01.098Z,48.01
2018-08-10T09:11:30.121Z,46.31
2018-08-10T09:15:05.685Z,46.37
2018-08-10T09:17:35.142Z,46.49
2018-08-10T09:20:06.083Z,46.97
2018-08-10T09:22:35.590Z,46.70
2018-08-10T09:25:08.045Z,46.57
2018-08-10T09:27:37.433Z,44.61
2018-08-10T09:30:10.083Z,43.60
2018-08-10T09:32:39.813Z,46.33
2018-08-10T09:35:10.558Z,45.44
2018-08-10T09:37:39.876Z,47.39
2018-08-10T09:40:16.123Z,46.81
2018-08-10T09:42:45.961Z,47.83
2018-08-10T09:45:15.999Z,45.60
2018-08-10T09:47:46.502Z,45.68
2018-08-10T09:50:16.718Z,45.91
2018-08-10T09:52:54.974Z,46.56
2018-08-10T09:55:43.710Z,47.18
2018-08-10T09:58:18.156Z,46.61
2018-08-10T10:00:52.706Z,47.31
2018-08-10T10:03:24.155Z,44.89
2018-08-10T10:05:54.742Z,45.39
2018-08-10T10:08:24.555Z,45.57
2018-08-10T10:10:53.895Z,45.44
2018-08-10T10:13:23.248Z,46.98
2018-08-10T10:15:52.571Z,47.46
2018-08-10T10:18:21.871Z,45.91
2018-08-10T10:20:51.409Z,46.19
2018-08-10T10:23:20.781Z,45.81
2018-08-10T10:25:50.264Z,45.44
2018-08-10T10:28:19.589Z,44.70
2018-08-10T10:30:48.957Z,44.05
2018-08-10T10:33:18.333Z,43.14
2018-08-10T10:35:47.653Z,41.68
2018-08-10T10:38:16.972Z,43.84
2018-08-10T10:40:46.255Z,42.05
2018-08-10T10:43:15.633Z,42.84
2018-08-10T10:45:45.016Z,44.02
2018-08-10T10:48:14.403Z,44.25
2018-08-10T10:50:43.827Z,44.69
2018-08-10T10:53:13.164Z,45.32
2018-08-10T10:55:42.549Z,45.97
2018-08-10T10:58:11.942Z,47.41
2018-08-10T11:00:41.339Z,46.74
2018-08-10T11:03:10.653Z,46.25
2018-08-10T11:05:40.076Z,46.49
2018-08-10T11:08:09.450Z,45.02
2018-08-10T11:10:38.742Z,46.24
2018-08-10T11:13:08.246Z,45.85
2018-08-10T11:15:37.566Z,45.53
2018-08-10T11:18:06.972Z,46.88
2018-08-10T11:20:36.246Z,46.06
2018-08-10T11:23:05.555Z,45.54
2018-08-10T11:25:34.890Z,43.51
2018-08-10T11:28:04.258Z,41.76
2018-08-10T11:30:33.629Z,42.49
2018-08-10T11:33:02.979Z,42.39
2018-08-10T11:35:32.277Z,43.14
2018-08-10T11:38:01.597Z,43.09
2018-08-10T11:40:30.865Z,42.81
2018-08-10T11:43:00.234Z,42.85
2018-08-10T11:45:29.592Z,44.32
2018-08-10T11:47:59.302Z,44.12
2018-08-10T11:50:28.630Z,44.77
2018-08-10T11:52:58.206Z,44.60
2018-08-10T11:55:27.251Z,45.72
2018-08-10T11:57:56.643Z,43.84
2018-08-10T12:00:26.118Z,42.68
2018-08-10T12:02:55.418Z,38.91
2018-08-10T12:05:24.769Z,40.43
2018-08-10T12:07:54.179Z,40.94
2018-08-10T12:10:23.449Z,41.66
2018-08-10T12:12:52.913Z,40.73
2018-08-10T12:15:22.130Z,41.94
2018-08-10T12:17:51.450Z,42.03
2018-08-10T12:20:20.854Z,41.32
2018-08-10T12:22:50.202Z,41.96
2018-08-10T12:25:19.449Z,43.00
2018-08-10T12:27:48.896Z,43.47
2018-08-10T12:30:18.341Z,43.45
2018-08-10T12:32:47.703Z,42.79
2018-08-10T12:35:17.054Z,45.15
2018-08-10T12:37:46.421Z,44.30
2018-08-10T12:40:15.737Z,43.13
2018-08-10T12:42:45.014Z,42.44
2018-08-10T12:45:14.337Z,40.59
2018-08-10T12:47:43.753Z,40.76
2018-08-10T12:50:12.985Z,40.15
2018-08-10T12:52:42.234Z,41.15
2018-08-10T12:55:12.271Z,40.21
2018-08-10T12:57:41.628Z,41.46
2018-08-10T13:00:12.515Z,40.52
2018-08-10T13:02:42.600Z,40.68
2018-08-10T13:05:11.821Z,41.36
2018-08-10T13:07:41.182Z,39.40
2018-08-10T13:10:12.136Z,40.87
2018-08-10T13:12:41.502Z,39.45
2018-08-10T13:15:12.592Z,39.69
2018-08-10T13:17:41.917Z,40.05
2018-08-10T13:20:13.062Z,40.23
2018-08-10T13:22:42.430Z,40.55
2018-08-10T13:25:12.092Z,42.71
2018-08-10T13:27:41.450Z,42.17
2018-08-10T13:30:12.201Z,40.41
2018-08-10T13:32:41.582Z,40.43
2018-08-10T13:35:11.112Z,40.42
2018-08-10T13:37:40.473Z,39.69
2018-08-10T13:40:10.020Z,38.58
2018-08-10T13:42:39.304Z,38.46
2018-08-10T13:45:11.995Z,39.25
2018-08-10T13:47:41.446Z,38.35
2018-08-10T13:57:12.230Z,40.27
2018-08-10T13:59:41.550Z,39.59
2018-08-10T14:02:10.970Z,40.31
2018-08-10T14:04:40.254Z,38.86
2018-08-10T14:07:09.605Z,39.08
2018-08-10T14:09:38.930Z,40.30
2018-08-10T14:12:08.368Z,39.50
2018-08-10T14:14:37.732Z,40.67
2018-08-10T14:17:07.056Z,40.88
2018-08-10T14:19:36.381Z,39.52
2018-08-10T14:22:05.984Z,39.96
2018-08-10T14:24:35.335Z,38.85
2018-08-10T14:27:04.681Z,38.45
2018-08-10T14:29:34.086Z,39.19
2018-08-10T14:32:03.393Z,38.44
2018-08-10T14:34:32.454Z,40.24
2018-08-10T14:37:01.805Z,40.21
2018-08-10T14:39:31.197Z,40.79
2018-08-10T14:42:00.483Z,40.48
2018-08-10T14:44:29.895Z,40.34
2018-08-10T14:46:59.245Z,40.14
2018-08-10T14:49:28.571Z,39.83
2018-08-10T14:51:58.037Z,39.82
2018-08-10T14:54:27.421Z,39.13
2018-08-10T14:56:56.754Z,41.29
2018-08-10T14:59:26.182Z,40.38
2018-08-10T15:01:55.551Z,40.69
2018-08-10T15:04:24.878Z,40.25
2018-08-10T15:06:54.229Z,39.40
2018-08-10T15:09:23.514Z,39.05
2018-08-10T15:11:52.897Z,39.07
2018-08-10T15:14:22.304Z,40.70
2018-08-10T15:16:51.634Z,41.86
2018-08-10T15:19:21.016Z,41.52
2018-08-10T15:21:50.416Z,39.90
2018-08-10T15:24:19.800Z,39.69
2018-08-10T15:26:49.153Z,38.84
2018-08-10T15:29:18.542Z,39.30
2018-08-10T15:31:47.964Z,39.12
2018-08-10T15:34:17.368Z,39.27
2018-08-10T15:36:46.776Z,40.88
2018-08-10T15:39:16.259Z,39.98
2018-08-10T15:41:45.713Z,39.56
2018-08-10T15:44:15.021Z,38.41
2018-08-10T15:46:44.383Z,39.32
2018-08-10T15:49:13.722Z,40.47
2018-08-10T15:51:43.082Z,40.64
2018-08-10T15:54:12.135Z,40.64
2018-08-10T15:56:41.825Z,41.35
2018-08-10T15:59:11.275Z,40.36
2018-08-10T16:01:40.695Z,39.53
2018-08-10T16:04:10.035Z,38.32
2018-08-10T16:06:39.371Z,38.18
2018-08-10T16:09:11.337Z,39.51
2018-08-10T16:11:40.703Z,39.15
2018-08-10T16:14:10.921Z,39.19
2018-08-10T16:16:40.241Z,39.56
2018-08-10T16:19:09.570Z,39.27
2018-08-10T16:21:38.910Z,40.09
2018-08-10T16:24:08.530Z,40.73
2018-08-10T16:26:37.808Z,40.52
2018-08-10T16:29:07.156Z,37.87
2018-08-10T16:31:36.401Z,38.52
2018-08-10T16:34:05.690Z,39.08
2018-08-10T16:36:35.034Z,39.90
2018-08-10T16:39:06.158Z,37.83
2018-08-10T16:41:35.499Z,38.87
2018-08-10T16:44:04.842Z,39.60
2018-08-10T16:46:34.143Z,40.65
2018-08-10T16:49:03.542Z,40.88
2018-08-10T16:51:32.909Z,40.88
2018-08-10T16:54:02.433Z,41.55
2018-08-10T16:56:31.558Z,41.64
2018-08-10T16:59:00.991Z,42.29
2018-08-10T17:01:30.322Z,41.24
2018-08-10T17:03:59.993Z,40.88
2018-08-10T17:06:29.309Z,37.79
2018-08-10T17:08:58.639Z,34.79
2018-08-10T17:11:28.002Z,34.36
2018-08-10T17:13:57.450Z,34.76
2018-08-10T17:16:26.845Z,35.54
2018-08-10T17:18:56.241Z,34.86
2018-08-10T17:21:25.670Z,33.32
2018-08-10T17:23:55.015Z,32.32
2018-08-10T17:26:24.418Z,32.22
2018-08-10T17:28:53.854Z,31.64
2018-08-10T17:31:23.172Z,31.58
2018-08-10T17:33:52.631Z,35.62
2018-08-10T17:36:21.909Z,35.18
2018-08-10T17:38:51.230Z,34.12
2018-08-10T17:41:20.661Z,32.41
2018-08-10T17:43:50.006Z,35.39
2018-08-10T17:46:19.276Z,36.13
2018-08-10T17:48:48.650Z,36.13
2018-08-10T17:51:17.971Z,38.28
2018-08-10T17:53:47.447Z,40.05
2018-08-10T17:56:16.724Z,40.83
2018-08-10T17:58:46.090Z,41.31
2018-08-10T18:01:15.134Z,41.54
2018-08-10T18:03:44.694Z,42.25
2018-08-10T18:06:14.050Z,42.82
2018-08-10T18:08:43.369Z,42.58
2018-08-10T18:11:12.662Z,43.34
2018-08-10T18:13:42.051Z,43.65
2018-08-10T18:16:11.621Z,43.49
2018-08-10T18:18:41.059Z,43.85
2018-08-10T18:21:10.610Z,44.40
2018-08-10T18:23:40.051Z,44.84
2018-08-10T18:26:09.566Z,45.25
2018-08-10T18:28:39.129Z,44.78
2018-08-10T18:31:08.614Z,44.87
2018-08-10T18:33:38.046Z,45.10
2018-08-10T18:36:07.397Z,45.45
2018-08-10T18:38:36.771Z,46.06
2018-08-10T18:41:06.215Z,45.63
2018-08-10T18:43:35.585Z,46.24
2018-08-10T18:46:04.961Z,46.40
2018-08-10T18:48:34.401Z,46.71
2018-08-10T18:51:03.794Z,47.54
2018-08-10T18:53:33.134Z,48.58
2018-08-10T18:56:02.566Z,50.56
2018-08-10T18:58:31.878Z,52.28
2018-08-10T19:01:01.226Z,53.06
2018-08-10T19:03:30.550Z,54.00
2018-08-10T19:06:00.018Z,55.08
2018-08-10T19:08:29.358Z,55.11
2018-08-10T19:10:58.767Z,55.69
2018-08-10T19:13:28.053Z,55.68
2018-08-10T19:15:57.495Z,55.91
2018-08-10T19:18:26.817Z,55.18
2018-08-10T19:20:56.211Z,56.82
2018-08-10T19:23:25.590Z,56.78
2018-08-10T19:25:54.978Z,57.46
2018-08-10T19:28:24.324Z,57.63
2018-08-10T19:30:53.652Z,57.39
2018-08-10T19:33:22.968Z,57.48
2018-08-10T19:35:52.230Z,57.81
2018-08-10T19:38:21.562Z,57.97
2018-08-10T19:40:51.120Z,58.18
2018-08-10T19:43:20.541Z,58.77
2018-08-10T19:45:49.889Z,58.80
2018-08-10T19:48:19.269Z,58.13
2018-08-10T19:50:48.618Z,57.98
2018-08-10T19:53:17.951Z,58.13
2018-08-10T19:55:47.325Z,58.43
2018-08-10T19:58:16.665Z,59.61
2018-08-10T20:00:46.112Z,59.59
2018-08-10T20:03:15.475Z,61.10
2018-08-10T20:05:44.814Z,61.30
2018-08-10T20:08:14.316Z,62.19
2018-08-10T20:10:43.663Z,62.28
2018-08-10T20:13:14.215Z,62.66
2018-08-10T20:15:43.621Z,63.74
2018-08-10T20:18:12.731Z,63.92
2018-08-10T20:20:42.281Z,63.85
2018-08-10T20:23:11.668Z,62.99
2018-08-10T20:25:41.086Z,63.18
2018-08-10T20:28:10.469Z,63.75
2018-08-10T20:30:39.807Z,64.32
2018-08-10T20:33:09.165Z,63.93
2018-08-10T20:35:38.416Z,63.32
2018-08-10T20:38:07.717Z,63.74
2018-08-10T20:40:37.115Z,63.77
2018-08-10T20:43:06.404Z,64.38
2018-08-10T20:45:35.834Z,64.12
2018-08-10T20:48:05.177Z,65.55
2018-08-10T20:50:34.556Z,65.79
2018-08-10T20:53:03.777Z,65.26
2018-08-10T20:55:33.098Z,65.05
2018-08-10T20:58:02.425Z,64.93
2018-08-10T21:00:31.743Z,66.30
2018-08-10T21:03:01.139Z,66.99
2018-08-10T21:05:30.482Z,66.90
2018-08-10T21:07:59.820Z,67.55
2018-08-10T21:10:29.174Z,67.23
2018-08-10T21:12:58.493Z,67.32
2018-08-10T21:15:27.797Z,68.18
2018-08-10T21:17:57.118Z,68.52
2018-08-10T21:20:26.412Z,68.03
2018-08-10T21:22:55.774Z,69.39
2018-08-10T21:25:25.050Z,68.96
2018-08-10T21:27:54.351Z,68.90
2018-08-10T21:30:23.690Z,68.57
2018-08-10T21:32:53.031Z,68.77
2018-08-10T21:35:22.518Z,69.12
2018-08-10T21:37:51.819Z,69.53
2018-08-10T21:40:21.179Z,69.40
2018-08-10T21:42:50.529Z,70.00
2018-08-10T21:45:19.863Z,70.37
2018-08-10T21:47:49.452Z,70.27
2018-08-10T21:50:18.855Z,70.33
2018-08-10T21:52:48.287Z,71.20
2018-08-10T21:55:17.625Z,71.34
2018-08-10T21:57:47.033Z,71.63
2018-08-10T22:00:39.707Z,71.71
2018-08-10T22:03:10.522Z,71.59
2018-08-10T22:05:40.142Z,71.42
2018-08-10T22:08:09.481Z,71.64
2018-08-10T22:10:38.982Z,71.15
2018-08-10T22:13:11.809Z,71.38
2018-08-10T22:15:46.758Z,71.52
2018-08-10T22:18:21.175Z,71.38
2018-08-10T22:20:50.579Z,71.36
2018-08-10T22:23:20.418Z,70.84
2018-08-10T22:25:49.914Z,71.42
2018-08-10T22:28:19.261Z,72.11
2018-08-10T22:30:48.682Z,72.49
2018-08-10T22:33:18.029Z,72.86
2018-08-10T22:35:47.330Z,72.60
2018-08-10T22:38:16.700Z,71.87
2018-08-10T22:40:46.032Z,72.40
2018-08-10T22:43:15.381Z,72.31
2018-08-10T22:45:44.755Z,72.69
2018-08-10T22:48:14.032Z,73.35
2018-08-10T22:50:43.374Z,74.04
2018-08-10T22:53:12.669Z,73.81
2018-08-10T22:55:41.950Z,73.47
2018-08-10T22:58:11.215Z,73.55
2018-08-10T23:00:41.028Z,73.52
2018-08-10T23:03:10.369Z,73.37
2018-08-10T23:05:39.649Z,74.10
2018-08-10T23:08:08.976Z,74.35
2018-08-10T23:10:38.338Z,74.11
2018-08-10T23:13:07.357Z,74.47
2018-08-10T23:15:36.629Z,74.54
2018-08-10T23:18:06.162Z,74.49
2018-08-10T23:20:35.462Z,74.03
2018-08-10T23:23:04.759Z,74.42
2018-08-10T23:25:34.021Z,73.74
2018-08-10T23:28:03.361Z,73.94
2018-08-10T23:30:32.777Z,74.14
2018-08-10T23:33:01.980Z,74.18
2018-08-10T23:35:31.253Z,74.29
2018-08-10T23:38:00.571Z,73.74
2018-08-10T23:40:30.277Z,72.47
2018-08-10T23:42:59.707Z,72.97
2018-08-10T23:45:28.980Z,73.08
2018-08-10T23:47:58.266Z,71.12
2018-08-10T23:50:27.621Z,71.03
2018-08-10T23:52:56.960Z,70.46
2018-08-10T23:55:26.335Z,71.47
2018-08-10T23:57:55.676Z,71.75
